Time;durP1;ratioP1;P1;durP2;ratioP2;P2;SDS_P1;SDS_P2;PMS_P1;PMS_P2;Temp;Humidity;BMP_temperature;BMP_pressure;BME280_temperature;BME280_humidity;BME280_pressure;Samples;Min_cycle;Max_cycle;Signal;HPM_P1;HPM_P2
2023/04/29 00:04:25;;;;;;;12.18;6.80;;;;;;;12.19;100.00;99421.47;12233738;19;20430;-83
2023/04/29 00:13:28;;;;;;;14.70;6.65;;;;;;;12.21;100.00;99422.06;12249557;19;20046;-84
2023/04/29 00:17:30;;;;;;;11.48;5.88;;;;;;;12.18;100.00;99426.19;12217935;19;21471;-84
2023/04/29 00:21:32;;;;;;;10.55;6.30;;;;;;;12.11;100.00;99422.03;12220126;19;20352;-83
2023/04/29 00:25:34;;;;;;;10.48;6.30;;;;;;;11.98;100.00;99418.63;12215690;19;20006;-83
2023/04/29 00:29:36;;;;;;;11.93;6.10;;;;;;;11.90;100.00;99421.06;12233642;19;20010;-83
2023/04/29 00:33:39;;;;;;;9.60;6.00;;;;;;;11.80;100.00;99425.41;12199578;19;20064;-85
2023/04/29 00:42:56;;;;;;;12.65;6.35;;;;;;;11.47;100.00;99429.34;12224706;19;20042;-81
2023/04/29 00:46:59;;;;;;;11.18;6.60;;;;;;;11.35;100.00;99423.19;12239751;19;20041;-84
2023/04/29 00:51:07;;;;;;;11.35;6.50;;;;;;;11.27;100.00;99431.94;12204837;19;20359;-82
2023/04/29 00:55:11;;;;;;;11.80;6.57;;;;;;;11.20;100.00;99439.59;12214965;19;20099;-83
2023/04/29 00:59:15;;;;;;;13.40;6.38;;;;;;;11.20;100.00;99428.56;12211474;19;20015;-83
2023/04/29 01:03:18;;;;;;;16.15;7.28;;;;;;;11.24;100.00;99440.72;12209513;19;20098;-85
2023/04/29 01:07:47;;;;;;;17.05;8.18;;;;;;;11.31;100.00;99439.44;12192714;19;20007;-83
2023/04/29 01:12:05;;;;;;;16.95;7.82;;;;;;;11.43;100.00;99443.94;12222661;19;20011;-86
2023/04/29 01:21:06;;;;;;;16.33;8.65;;;;;;;11.56;100.00;99443.47;12220246;19;20017;-85
2023/04/29 01:25:08;;;;;;;16.85;8.32;;;;;;;11.59;100.00;99443.75;12205554;19;19999;-84
2023/04/29 01:40:00;;;;;;;17.95;8.50;;;;;;;11.68;100.00;99448.78;12210590;19;20054;-84
2023/04/29 01:44:07;;;;;;;19.48;8.23;;;;;;;11.69;100.00;99437.50;12187308;19;20546;-83
2023/04/29 01:48:09;;;;;;;16.63;8.25;;;;;;;11.67;100.00;99438.88;12200713;19;20015;-85
2023/04/29 01:52:12;;;;;;;16.15;7.57;;;;;;;11.64;100.00;99445.75;12204583;19;20007;-84
2023/04/29 02:01:28;;;;;;;14.45;7.68;;;;;;;11.78;100.00;99443.34;12198801;19;20014;-86
2023/04/29 02:05:32;;;;;;;16.73;7.63;;;;;;;11.83;100.00;99441.44;12211126;19;20058;-85
2023/04/29 02:09:35;;;;;;;12.52;7.47;;;;;;;11.88;100.00;99440.66;12220812;19;20607;-86
2023/04/29 02:13:43;;;;;;;14.13;7.45;;;;;;;11.91;100.00;99439.31;12205745;19;20003;-85
2023/04/29 02:17:46;;;;;;;14.40;8.20;;;;;;;11.91;100.00;99451.19;12213915;19;20021;-86
2023/04/29 02:21:48;;;;;;;17.20;7.82;;;;;;;11.88;100.00;99459.16;12198170;19;20011;-86
2023/04/29 02:25:51;;;;;;;13.93;7.03;;;;;;;11.85;100.00;99458.59;12183433;19;20785;-85
2023/04/29 02:30:16;;;;;;;16.80;7.07;;;;;;;11.83;100.00;99476.50;12222720;19;20037;-85
2023/04/29 02:34:21;;;;;;;13.48;7.03;;;;;;;11.80;100.00;99472.31;12203906;19;20360;-83
2023/04/29 02:38:22;;;;;;;14.00;7.25;;;;;;;11.81;100.00;99478.72;12217676;19;20011;-83
2023/04/29 02:42:24;;;;;;;13.90;6.82;;;;;;;11.80;100.00;99482.53;12212425;19;20031;-85
2023/04/29 02:46:27;;;;;;;12.40;6.97;;;;;;;11.82;100.00;99483.94;12199454;19;20017;-82
2023/04/29 02:50:29;;;;;;;14.45;6.88;;;;;;;11.81;100.00;99485.06;12215213;19;20006;-86
2023/04/29 02:54:33;;;;;;;14.57;7.55;;;;;;;11.84;100.00;99489.22;12215141;19;20805;-84
2023/04/29 02:58:38;;;;;;;11.63;6.43;;;;;;;11.89;100.00;99485.66;12191659;19;20003;-82
2023/04/29 03:08:42;;;;;;;8.77;5.07;;;;;;;11.83;100.00;99480.06;12226162;19;20005;-84
2023/04/29 03:18:23;;;;;;;9.32;5.18;;;;;;;11.77;100.00;99480.31;12207854;19;19996;-84
2023/04/29 03:22:57;;;;;;;11.68;6.28;;;;;;;11.73;100.00;99488.31;12219382;19;20027;-83
2023/04/29 03:26:59;;;;;;;10.90;6.82;;;;;;;11.72;100.00;99483.88;12215168;19;20006;-83
2023/04/29 03:31:02;;;;;;;9.00;6.00;;;;;;;11.72;100.00;99494.94;12226533;19;20019;-85
2023/04/29 03:35:07;;;;;;;10.20;6.10;;;;;;;11.73;100.00;99484.72;12188356;19;20014;-85
2023/04/29 03:39:23;;;;;;;11.52;6.32;;;;;;;11.74;100.00;99492.72;12218367;19;20102;-85
2023/04/29 03:43:26;;;;;;;9.18;5.40;;;;;;;11.76;100.00;99501.56;12183798;19;20002;-85
2023/04/29 03:52:15;;;;;;;8.90;5.40;;;;;;;11.74;100.00;99506.50;12207970;19;20035;-85
2023/04/29 03:56:18;;;;;;;9.38;5.03;;;;;;;11.72;100.00;99502.34;12204300;19;20021;-81
2023/04/29 04:00:40;;;;;;;7.75;4.28;;;;;;;11.73;100.00;99513.16;12236875;19;20022;-85
2023/04/29 04:04:50;;;;;;;9.63;3.95;;;;;;;11.74;100.00;99508.44;12258944;19;20018;-86
2023/04/29 04:08:52;;;;;;;7.43;4.10;;;;;;;11.71;100.00;99518.09;12207936;19;20010;-84
2023/04/29 04:12:59;;;;;;;7.60;4.35;;;;;;;11.73;100.00;99524.19;12205685;19;20021;-83
2023/04/29 04:22:19;;;;;;;6.68;4.15;;;;;;;11.70;100.00;99527.47;12230122;19;20015;-84
2023/04/29 04:26:37;;;;;;;9.63;4.38;;;;;;;11.72;100.00;99538.25;12227015;19;20006;-83
2023/04/29 04:30:57;;;;;;;6.32;4.15;;;;;;;11.75;100.00;99546.84;12217999;19;20034;-85
2023/04/29 04:35:05;;;;;;;7.20;4.25;;;;;;;11.78;100.00;99551.00;12178413;19;20010;-83
2023/04/29 04:43:59;;;;;;;6.95;4.53;;;;;;;11.85;100.00;99558.00;12177820;19;20003;-85
2023/04/29 04:48:15;;;;;;;8.20;4.40;;;;;;;11.92;100.00;99551.41;12198733;19;20414;-83
2023/04/29 04:52:21;;;;;;;6.20;4.10;;;;;;;11.98;100.00;99558.63;12040931;19;2747502;-85
2023/04/29 04:56:35;;;;;;;7.35;3.95;;;;;;;12.03;100.00;99567.78;12197073;19;20384;-86
2023/04/29 05:00:44;;;;;;;5.70;3.70;;;;;;;12.08;100.00;99569.75;12202546;19;20432;-84
2023/04/29 05:04:46;;;;;;;5.75;3.78;;;;;;;12.12;100.00;99567.28;12193482;19;20146;-84
2023/04/29 05:08:50;;;;;;;4.40;3.10;;;;;;;12.14;100.00;99574.22;12199405;19;20014;-84
2023/04/29 05:12:53;;;;;;;5.57;3.10;;;;;;;12.14;100.00;99574.22;12202598;19;20374;-84
2023/04/29 05:16:59;;;;;;;6.90;3.67;;;;;;;12.14;100.00;99582.50;12184845;19;20018;-86
2023/04/29 05:21:01;;;;;;;7.10;3.65;;;;;;;12.14;100.00;99587.19;12198734;19;20319;-85
2023/04/29 05:25:04;;;;;;;7.93;3.55;;;;;;;12.17;100.00;99592.19;12207462;19;20377;-86
2023/04/29 05:34:10;;;;;;;7.78;4.15;;;;;;;12.19;100.00;99601.84;12235104;19;20021;-82
2023/04/29 05:38:13;;;;;;;7.80;4.13;;;;;;;12.21;100.00;99610.72;12238036;19;20121;-85
2023/04/29 05:42:22;;;;;;;8.48;4.25;;;;;;;12.24;100.00;99626.75;12205289;19;20007;-85
2023/04/29 05:47:07;;;;;;;11.45;4.63;;;;;;;12.28;100.00;99633.44;12236584;19;20007;-84
2023/04/29 05:51:09;;;;;;;8.10;3.95;;;;;;;12.32;100.00;99639.25;12211504;19;19999;-84
2023/04/29 05:55:12;;;;;;;9.05;5.10;;;;;;;12.35;100.00;99647.03;12187144;19;20022;-84
2023/04/29 05:59:14;;;;;;;8.35;5.25;;;;;;;12.38;100.00;99654.78;12220852;19;20013;-82
2023/04/29 06:03:22;;;;;;;7.13;4.85;;;;;;;12.42;100.00;99655.06;12213089;19;20633;-84
2023/04/29 06:07:35;;;;;;;7.07;4.72;;;;;;;12.59;100.00;99654.91;12245629;19;20039;-86
2023/04/29 06:11:45;;;;;;;10.80;6.22;;;;;;;12.76;100.00;99653.63;12220572;19;20549;-86
2023/04/29 06:15:48;;;;;;;11.57;6.50;;;;;;;12.89;100.00;99668.91;12211655;19;20029;-84
2023/04/29 06:19:50;;;;;;;9.75;5.57;;;;;;;12.99;100.00;99673.66;12207776;19;20007;-85
2023/04/29 06:23:53;;;;;;;11.77;7.35;;;;;;;12.90;100.00;99672.50;12211359;19;20404;-82
2023/04/29 06:27:56;;;;;;;13.90;7.25;;;;;;;12.73;100.00;99684.59;12211389;19;20015;-86
2023/04/29 06:32:02;;;;;;;19.95;10.50;;;;;;;12.71;100.00;99683.19;12187101;19;20006;-83
2023/04/29 06:36:05;;;;;;;17.30;9.15;;;;;;;12.86;100.00;99693.50;12211410;19;20017;-85
2023/04/29 06:40:13;;;;;;;22.52;9.75;;;;;;;12.87;100.00;99697.91;12189371;19;20291;-84
2023/04/29 06:44:44;;;;;;;17.92;9.60;;;;;;;13.05;100.00;99697.47;12206446;19;20091;-84
2023/04/29 06:49:13;;;;;;;15.25;8.50;;;;;;;13.33;100.00;99698.19;12179868;19;20022;-83
2023/04/29 06:53:15;;;;;;;18.55;8.65;;;;;;;13.36;100.00;99703.19;12205608;19;20014;-83
2023/04/29 06:57:17;;;;;;;17.35;10.23;;;;;;;13.41;100.00;99706.81;12202965;19;20010;-83
2023/04/29 07:01:20;;;;;;;16.10;8.68;;;;;;;13.58;100.00;99711.28;12186571;19;20007;-84
2023/04/29 07:05:25;;;;;;;15.35;8.15;;;;;;;13.57;100.00;99707.69;12207527;19;20122;-80
2023/04/29 07:09:28;;;;;;;16.42;7.65;;;;;;;13.75;100.00;99708.28;12204533;19;20538;-82
2023/04/29 07:13:30;;;;;;;10.75;6.53;;;;;;;13.76;100.00;99726.56;12182135;19;19996;-82
2023/04/29 07:17:32;;;;;;;14.30;7.77;;;;;;;13.71;100.00;99730.13;12192440;19;20039;-82
2023/04/29 07:21:34;;;;;;;14.67;7.63;;;;;;;13.77;100.00;99731.84;12185894;19;20043;-80
2023/04/29 07:25:36;;;;;;;12.23;6.90;;;;;;;13.75;100.00;99742.34;12156122;19;20011;-80
2023/04/29 07:29:39;;;;;;;11.50;6.35;;;;;;;13.79;100.00;99739.84;12199301;19;20019;-81
2023/04/29 07:33:43;;;;;;;10.47;5.23;;;;;;;13.94;100.00;99745.44;12197795;19;20031;-80
2023/04/29 07:37:45;;;;;;;12.23;5.72;;;;;;;14.03;100.00;99749.31;12182369;19;20268;-81
2023/04/29 07:41:47;;;;;;;11.73;4.78;;;;;;;14.13;100.00;99754.91;12204417;19;20010;-81
2023/04/29 07:45:49;;;;;;;9.45;4.28;;;;;;;14.12;100.00;99757.94;12197875;19;21193;-80
2023/04/29 07:49:51;;;;;;;8.32;4.07;;;;;;;14.19;100.00;99761.28;12178844;19;20010;-80
2023/04/29 07:53:53;;;;;;;7.25;4.53;;;;;;;13.97;100.00;99769.81;12199201;19;20411;-81
2023/04/29 07:57:55;;;;;;;6.88;3.67;;;;;;;14.11;98.77;99775.69;12205762;19;20002;-82
2023/04/29 08:01:59;;;;;;;8.48;4.53;;;;;;;14.27;96.67;99784.84;12181148;19;20002;-81
2023/04/29 08:06:02;;;;;;;6.90;3.70;;;;;;;14.34;100.00;99777.09;12205504;19;20126;-78
2023/04/29 08:10:08;;;;;;;7.22;4.00;;;;;;;14.49;97.04;99785.44;12202439;19;20924;-80
2023/04/29 08:14:11;;;;;;;7.65;4.00;;;;;;;14.51;97.54;99794.31;12183580;19;20010;-84
2023/04/29 08:18:13;;;;;;;6.53;3.63;;;;;;;14.56;98.46;99799.03;12200640;19;20081;-84
2023/04/29 08:22:19;;;;;;;7.50;4.10;;;;;;;14.57;95.41;99797.91;12211008;19;20007;-85
2023/04/29 08:26:21;;;;;;;6.05;3.67;;;;;;;14.62;91.07;99802.66;12173773;19;20003;-81
2023/04/29 08:30:24;;;;;;;7.70;4.13;;;;;;;14.65;93.44;99802.94;12200690;19;20015;-83
2023/04/29 08:34:26;;;;;;;7.78;3.45;;;;;;;14.83;94.41;99804.31;12187671;19;20031;-83
2023/04/29 08:38:28;;;;;;;7.23;3.33;;;;;;;14.86;93.84;99816.78;12209845;19;20080;-84
2023/04/29 08:42:35;;;;;;;6.68;3.20;;;;;;;14.80;85.94;99818.75;12207233;19;20014;-83
2023/04/29 08:46:38;;;;;;;6.25;2.70;;;;;;;14.64;88.95;99820.69;12185241;19;20007;-82
2023/04/29 08:50:41;;;;;;;6.32;3.72;;;;;;;14.64;90.60;99830.94;12203923;19;20078;-82
2023/04/29 08:54:43;;;;;;;4.93;2.75;;;;;;;14.72;86.26;99825.69;12203223;19;20031;-84
2023/04/29 09:03:29;;;;;;;6.40;3.30;;;;;;;14.83;91.12;99826.50;12184477;19;20015;-84
2023/04/29 09:07:32;;;;;;;4.65;2.78;;;;;;;15.02;91.26;99835.94;12181571;19;21003;-84
2023/04/29 09:11:34;;;;;;;8.48;4.15;;;;;;;15.08;88.20;99833.13;12205109;19;20014;-82
2023/04/29 09:15:41;;;;;;;6.20;3.70;;;;;;;15.15;88.48;99839.25;12204800;19;20562;-85
2023/04/29 09:19:43;;;;;;;8.25;4.07;;;;;;;15.06;90.70;99850.09;12185031;19;20030;-83
2023/04/29 09:23:47;;;;;;;9.15;3.50;;;;;;;14.86;89.71;99839.81;12204303;19;20009;-82
2023/04/29 09:27:54;;;;;;;6.28;3.55;;;;;;;14.78;91.96;99852.31;12200646;19;20006;-84
2023/04/29 09:31:57;;;;;;;5.68;3.53;;;;;;;14.77;91.45;99852.56;12175237;19;20089;-81
2023/04/29 09:36:00;;;;;;;6.78;4.07;;;;;;;14.78;90.07;99854.22;12202454;19;21383;-84
2023/04/29 09:40:03;;;;;;;8.00;4.15;;;;;;;14.77;88.19;99861.72;12205590;19;20002;-84
2023/04/29 09:44:06;;;;;;;9.27;4.22;;;;;;;14.72;84.72;99867.28;12179501;19;20348;-85
2023/04/29 09:48:10;;;;;;;6.90;3.72;;;;;;;14.55;85.93;99859.22;12199376;19;20009;-85
2023/04/29 09:52:15;;;;;;;9.57;4.32;;;;;;;14.68;87.57;99862.56;12182464;19;20003;-83
2023/04/29 09:56:17;;;;;;;7.82;3.65;;;;;;;14.78;90.96;99868.97;12199114;19;20006;-83
2023/04/29 10:00:19;;;;;;;7.80;4.57;;;;;;;14.83;87.36;99873.66;12196648;19;20010;-83
2023/04/29 10:04:23;;;;;;;7.45;4.47;;;;;;;14.89;89.47;99878.09;12172410;19;20014;-81
2023/04/29 10:08:27;;;;;;;6.13;3.75;;;;;;;14.97;90.69;99880.34;12211129;19;20015;-81
2023/04/29 10:12:30;;;;;;;7.47;4.43;;;;;;;14.94;88.76;99875.34;12212308;19;20013;-84
2023/04/29 10:16:38;;;;;;;7.88;4.20;;;;;;;15.18;85.18;99885.88;12194016;19;20466;-79
2023/04/29 10:20:47;;;;;;;8.80;3.90;;;;;;;15.01;85.17;99888.94;12229404;19;20018;-79
2023/04/29 10:24:54;;;;;;;7.22;3.95;;;;;;;14.98;86.42;99884.75;12231260;19;20492;-82
2023/04/29 10:28:58;;;;;;;7.80;3.92;;;;;;;15.01;86.56;99895.31;12193955;19;20018;-83
2023/04/29 10:33:03;;;;;;;6.70;2.95;;;;;;;14.91;85.28;99886.16;12203043;19;20014;-83
2023/04/29 10:37:12;;;;;;;5.72;3.40;;;;;;;14.86;86.37;99895.31;12196323;19;20007;-83
2023/04/29 10:41:25;;;;;;;7.40;3.22;;;;;;;15.07;87.18;99896.16;12184899;19;20030;-80
2023/04/29 10:45:34;;;;;;;4.85;3.17;;;;;;;15.28;84.43;99894.19;12207421;19;20463;-80
2023/04/29 10:49:37;;;;;;;4.93;2.58;;;;;;;15.47;80.77;99889.75;12179745;19;20333;-82
2023/04/29 10:53:58;;;;;;;5.50;3.47;;;;;;;15.31;83.04;99901.97;12206788;19;20010;-81
2023/04/29 10:58:02;;;;;;;9.98;5.72;;;;;;;15.39;84.87;99901.41;12201015;19;20033;-84
2023/04/29 11:02:05;;;;;;;8.38;5.22;;;;;;;15.38;87.59;99899.75;12181287;19;20041;-84
2023/04/29 11:06:08;;;;;;;10.75;5.47;;;;;;;15.53;86.72;99898.03;12203621;19;20491;-85
2023/04/29 11:10:12;;;;;;;8.20;4.82;;;;;;;15.69;85.15;99889.44;12199788;19;20771;-83
2023/04/29 11:14:20;;;;;;;8.25;4.80;;;;;;;15.64;82.52;99889.41;12201026;19;20081;-83
2023/04/29 11:18:22;;;;;;;7.72;4.65;;;;;;;15.55;86.27;99881.94;12206038;19;20026;-81
2023/04/29 11:22:32;;;;;;;7.95;4.80;;;;;;;15.59;84.79;99881.09;12188338;19;20002;-83
2023/04/29 11:26:36;;;;;;;9.07;5.70;;;;;;;15.35;84.87;99893.91;12219191;19;20010;-84
2023/04/29 11:30:39;;;;;;;8.77;5.10;;;;;;;15.02;85.14;99894.22;12214816;19;19999;-82
2023/04/29 11:34:42;;;;;;;8.13;4.63;;;;;;;14.69;86.89;99895.56;12183747;19;20077;-81
2023/04/29 11:38:45;;;;;;;9.02;4.93;;;;;;;14.71;88.33;99900.84;12201160;19;20510;-84
2023/04/29 11:42:48;;;;;;;8.40;4.30;;;;;;;14.69;88.89;99895.56;12205446;19;20025;-82
2023/04/29 11:46:51;;;;;;;7.47;4.55;;;;;;;14.62;89.74;99903.31;12184627;19;19999;-82
2023/04/29 11:50:57;;;;;;;10.77;4.35;;;;;;;15.09;87.32;99901.44;12208887;19;20096;-82
2023/04/29 11:54:59;;;;;;;7.75;3.42;;;;;;;15.37;84.82;99903.63;12206039;19;20007;-81
2023/04/29 11:59:06;;;;;;;7.60;4.10;;;;;;;15.75;85.05;99900.53;12189913;19;20003;-81
2023/04/29 12:03:18;;;;;;;7.53;3.92;;;;;;;15.87;81.37;99909.38;12206989;19;20002;-83
2023/04/29 12:07:21;;;;;;;6.55;3.53;;;;;;;15.81;78.17;99902.19;12187632;19;20038;-83
2023/04/29 12:11:24;;;;;;;7.93;4.00;;;;;;;15.63;80.90;99903.59;12205383;19;20058;-82
2023/04/29 12:15:30;;;;;;;6.20;3.90;;;;;;;15.70;79.57;99905.00;12205909;19;20021;-81
2023/04/29 12:19:32;;;;;;;5.78;3.67;;;;;;;15.85;79.59;99892.97;12183056;19;20033;-81
2023/04/29 12:23:35;;;;;;;5.72;3.38;;;;;;;16.06;78.98;99892.91;12203103;19;20026;-84
2023/04/29 12:27:41;;;;;;;6.93;3.10;;;;;;;16.22;75.67;99882.56;12218258;19;20364;-81
2023/04/29 12:31:46;;;;;;;4.43;3.05;;;;;;;16.65;76.97;99894.81;12202380;19;20006;-83
2023/04/29 12:35:49;;;;;;;5.53;2.90;;;;;;;18.58;73.58;99902.38;12203092;19;20027;-82
2023/04/29 12:39:53;;;;;;;5.40;2.95;;;;;;;20.71;64.97;99895.16;12203075;19;20318;-84
2023/04/29 12:43:55;;;;;;;4.88;2.85;;;;;;;21.05;53.02;99889.00;12183934;19;20022;-81
2023/04/29 12:47:58;;;;;;;4.35;2.90;;;;;;;20.91;56.05;99891.88;12214024;19;20049;-83
2023/04/29 12:52:01;;;;;;;4.28;2.63;;;;;;;21.36;54.27;99894.72;12212035;19;20014;-83
2023/04/29 12:56:05;;;;;;;6.32;3.28;;;;;;;21.44;48.38;99889.47;12190274;19;20047;-82
2023/04/29 13:00:08;;;;;;;4.88;2.80;;;;;;;21.14;50.57;99880.66;12201249;19;20003;-82
2023/04/29 13:04:11;;;;;;;5.55;2.85;;;;;;;21.24;52.78;99888.81;12176836;19;20059;-84
2023/04/29 13:08:13;;;;;;;6.07;3.58;;;;;;;20.92;51.33;99882.31;12198161;19;20007;-81
2023/04/29 13:12:16;;;;;;;4.65;2.95;;;;;;;21.98;50.80;99887.41;12203310;19;20074;-83
2023/04/29 13:16:19;;;;;;;4.90;2.67;;;;;;;22.33;46.76;99881.94;12174503;19;20031;-82
2023/04/29 13:20:21;;;;;;;4.20;2.88;;;;;;;21.53;48.99;99891.16;12207407;19;20007;-82
2023/04/29 13:24:24;;;;;;;4.03;2.60;;;;;;;22.09;49.92;99885.97;12198675;19;20010;-81
2023/04/29 13:28:26;;;;;;;5.03;3.27;;;;;;;21.72;46.71;99893.75;12175393;19;19999;-83
2023/04/29 13:32:29;;;;;;;3.97;2.50;;;;;;;20.68;49.04;99890.19;12200678;19;20010;-81
2023/04/29 13:36:46;;;;;;;3.72;2.15;;;;;;;19.82;49.39;99890.84;12208158;19;20086;-82
2023/04/29 13:40:50;;;;;;;4.75;2.47;;;;;;;19.27;51.55;99893.50;12174547;19;20010;-81
2023/04/29 13:44:56;;;;;;;3.38;2.15;;;;;;;18.95;54.26;99888.72;12209232;19;20489;-82
2023/04/29 13:48:58;;;;;;;3.97;2.70;;;;;;;18.86;53.90;99897.00;12216012;19;20777;-81
2023/04/29 13:53:03;;;;;;;3.67;2.17;;;;;;;18.28;55.33;99902.78;12190270;19;20018;-79
2023/04/29 17:12:32;;;;;;;4.25;1.42;;;;;;;14.62;80.99;100018.97;12231528;19;19999;-84
2023/04/29 17:16:34;;;;;;;4.07;1.80;;;;;;;14.45;80.94;100022.72;12180721;19;20128;-81
2023/04/29 17:20:36;;;;;;;4.70;2.17;;;;;;;14.39;81.69;100026.59;12221773;19;20017;-82
2023/04/29 17:24:38;;;;;;;9.70;4.35;;;;;;;14.29;82.20;100024.59;12218761;19;20201;-87
2023/04/29 17:28:40;;;;;;;4.75;2.67;;;;;;;14.21;82.46;100029.81;12200125;19;20031;-84
2023/04/29 17:32:43;;;;;;;4.55;2.33;;;;;;;14.11;83.29;100033.38;12223877;19;20014;-83
2023/04/29 17:36:46;;;;;;;6.55;3.05;;;;;;;13.96;84.14;100038.81;12206403;19;20710;-85
2023/04/29 17:40:48;;;;;;;5.10;2.72;;;;;;;13.88;84.72;100040.97;12190741;19;20511;-87
2023/04/29 17:44:50;;;;;;;5.23;2.20;;;;;;;13.87;85.16;100042.09;12223521;19;20013;-85
2023/04/29 17:48:52;;;;;;;4.20;2.47;;;;;;;13.81;86.07;100050.63;12215994;19;20011;-87
2023/04/29 17:52:54;;;;;;;4.53;2.70;;;;;;;13.74;87.27;100050.00;12193899;19;20006;-85
2023/04/29 17:56:57;;;;;;;5.60;3.05;;;;;;;13.67;87.92;100050.22;12220641;19;20082;-85
2023/04/29 18:01:03;;;;;;;5.03;2.90;;;;;;;13.60;88.64;100047.69;12221005;19;20392;-86
2023/04/29 18:05:05;;;;;;;6.75;3.47;;;;;;;13.55;89.02;100058.72;12204534;19;20039;-87
2023/04/29 18:09:08;;;;;;;6.70;4.00;;;;;;;13.48;89.75;100055.34;12218686;19;19999;-85
2023/04/29 18:13:10;;;;;;;7.53;4.13;;;;;;;13.44;89.94;100065.25;12212200;19;20026;-87
2023/04/29 18:17:12;;;;;;;8.88;4.72;;;;;;;13.40;90.51;100073.25;12230956;19;20042;-87
2023/04/29 19:39:52;;;;;;;9.02;5.90;;;;;;;12.60;100.00;100138.41;12188317;19;20010;-82
2023/04/29 19:43:55;;;;;;;10.77;6.03;;;;;;;12.58;100.00;100142.50;12195711;19;20014;-84
2023/04/29 19:48:00;;;;;;;14.57;7.20;;;;;;;12.56;100.00;100141.94;12234486;19;20003;-83
2023/04/29 19:52:05;;;;;;;11.35;6.60;;;;;;;12.52;100.00;100136.06;12210075;19;20010;-84
2023/04/29 19:56:07;;;;;;;11.40;6.80;;;;;;;12.53;100.00;100143.28;12192422;19;20035;-82
2023/04/29 20:00:13;;;;;;;11.07;6.70;;;;;;;12.48;100.00;100141.25;12195807;19;20003;-81
2023/04/29 20:04:16;;;;;;;14.23;7.10;;;;;;;12.44;100.00;100147.56;12185094;19;20013;-83
2023/04/29 20:08:19;;;;;;;12.02;6.65;;;;;;;12.44;100.00;100153.09;12204731;19;20010;-84
2023/04/29 20:12:27;;;;;;;12.82;7.05;;;;;;;12.45;100.00;100158.34;12205182;19;20002;-83
2023/04/29 20:16:31;;;;;;;11.45;7.40;;;;;;;12.43;100.00;100154.16;12183338;19;20003;-84
2023/04/29 20:20:32;;;;;;;13.33;7.90;;;;;;;12.43;100.00;100156.94;12203447;19;20034;-82
2023/04/29 20:24:34;;;;;;;13.30;6.97;;;;;;;12.43;100.00;100156.94;12201752;19;20007;-83
2023/04/29 20:28:37;;;;;;;10.32;6.10;;;;;;;12.41;100.00;100162.72;12180729;19;20021;-83
2023/04/29 20:32:39;;;;;;;10.67;6.97;;;;;;;12.38;100.00;100162.41;12202280;19;20025;-82
2023/04/29 20:36:41;;;;;;;11.37;7.17;;;;;;;12.35;100.00;100162.91;12201335;19;20019;-84
2023/04/29 20:40:44;;;;;;;12.23;7.13;;;;;;;12.34;100.00;100161.22;12186423;19;20795;-84
2023/04/29 20:44:46;;;;;;;11.32;6.53;;;;;;;12.35;100.00;100173.97;12207671;19;20018;-83
2023/04/29 20:48:47;;;;;;;11.48;6.75;;;;;;;12.29;100.00;100168.34;12207348;19;20011;-83
2023/04/29 20:52:51;;;;;;;11.45;6.60;;;;;;;12.28;100.00;100157.53;12185230;19;20418;-83
2023/04/29 20:56:52;;;;;;;12.52;5.75;;;;;;;12.25;100.00;100164.41;12209517;19;20058;-83
2023/04/29 21:00:55;;;;;;;11.73;6.80;;;;;;;12.19;100.00;100168.19;12209685;19;20013;-83
2023/04/29 21:04:56;;;;;;;14.40;7.80;;;;;;;12.15;100.00;100167.03;12183386;19;20475;-82
2023/04/29 21:08:59;;;;;;;12.32;7.53;;;;;;;12.15;100.00;100167.03;12205025;19;19999;-82
2023/04/29 21:13:01;;;;;;;14.63;7.75;;;;;;;12.14;100.00;100168.13;12206015;19;20491;-83
2023/04/29 21:17:03;;;;;;;12.13;7.80;;;;;;;12.13;100.00;100174.72;12184031;19;20435;-84
2023/04/29 21:21:05;;;;;;;13.00;7.60;;;;;;;12.14;100.00;100176.41;12191987;19;20011;-83
2023/04/29 21:25:08;;;;;;;11.13;6.22;;;;;;;12.13;100.00;100171.94;12203902;19;20367;-84
2023/04/29 21:29:09;;;;;;;14.10;6.68;;;;;;;12.08;100.00;100178.25;12194163;19;20061;-82
2023/04/29 21:33:11;;;;;;;13.30;6.95;;;;;;;12.07;100.00;100165.50;12207869;19;20088;-83
2023/04/29 21:37:14;;;;;;;10.57;6.63;;;;;;;12.05;100.00;100175.16;12186454;19;20140;-82
2023/04/29 21:41:28;;;;;;;15.10;7.65;;;;;;;12.04;100.00;100177.06;12205114;19;20398;-82
2023/04/29 21:45:29;;;;;;;11.35;7.22;;;;;;;12.05;100.00;100175.16;12208211;19;20088;-83
2023/04/29 21:49:31;;;;;;;12.48;6.93;;;;;;;12.01;100.00;100169.25;12181087;19;21621;-82
2023/04/29 21:53:33;;;;;;;12.23;6.13;;;;;;;11.99;100.00;100173.38;12206231;19;20006;-83
2023/04/29 21:57:35;;;;;;;10.43;7.05;;;;;;;11.98;100.00;100174.47;12216493;19;20066;-81
2023/04/29 22:05:54;;;;;;;12.50;6.90;;;;;;;11.92;100.00;100179.06;12232121;19;20030;-82
2023/04/29 22:09:57;;;;;;;;;;;;;;;11.89;100.00;100181.47;12214903;19;20522;-84
2023/04/29 22:14:02;;;;;;;13.65;6.78;;;;;;;11.86;100.00;100188.34;12196244;19;19929;-82
2023/04/29 22:18:05;;;;;;;13.18;6.35;;;;;;;11.84;100.00;100185.81;12215889;19;20019;-82
2023/04/29 22:22:08;;;;;;;10.50;6.18;;;;;;;11.84;100.00;100194.09;12230686;19;20019;-84
2023/04/29 22:26:14;;;;;;;9.50;6.32;;;;;;;11.84;100.00;100198.78;12218576;19;20014;-84
2023/04/29 22:30:23;;;;;;;14.43;6.40;;;;;;;11.82;100.00;100198.19;12221478;19;20109;-85
2023/04/29 22:34:29;;;;;;;13.27;6.43;;;;;;;11.88;100.00;100196.38;12226589;19;20006;-82
2023/04/29 22:38:36;;;;;;;8.90;6.15;;;;;;;11.85;100.00;100203.25;12247683;19;20459;-83
2023/04/29 22:42:41;;;;;;;11.20;6.43;;;;;;;11.82;100.00;100200.94;12243410;19;20002;-84
2023/04/29 22:46:43;;;;;;;10.20;6.72;;;;;;;11.80;100.00;100203.94;12193208;19;20015;-83
2023/04/29 22:50:52;;;;;;;11.35;7.57;;;;;;;11.77;100.00;100204.44;12209212;19;20029;-84
2023/04/29 22:54:54;;;;;;;11.48;6.50;;;;;;;11.76;100.00;100205.53;12232246;19;20002;-81
2023/04/29 23:03:05;;;;;;;19.92;10.15;;;;;;;11.72;100.00;100207.13;12221405;19;20010;-85
2023/04/29 23:07:08;;;;;;;;;;;;;;;11.66;100.00;100205.34;12215061;19;20010;-81
2023/04/29 23:11:11;;;;;;;13.90;8.88;;;;;;;11.66;100.00;100204.50;12187590;19;19914;-81
2023/04/29 23:15:18;;;;;;;13.45;8.50;;;;;;;11.60;100.00;100203.56;12205422;19;20015;-81
2023/04/29 23:19:20;;;;;;;12.38;7.30;;;;;;;11.57;100.00;100207.69;12181921;19;20728;-84
2023/04/29 23:23:22;;;;;;;15.10;7.18;;;;;;;11.55;100.00;100215.34;12211489;19;20467;-81
2023/04/29 23:27:23;;;;;;;12.85;6.63;;;;;;;11.56;100.00;100225.31;12217154;19;20003;-83
2023/04/29 23:31:25;;;;;;;9.63;6.95;;;;;;;11.54;100.00;100223.88;12187380;19;20010;-82
2023/04/29 23:35:27;;;;;;;13.25;6.88;;;;;;;11.52;100.00;100226.06;12206445;19;20147;-83
2023/04/29 23:39:29;;;;;;;12.88;7.10;;;;;;;11.51;100.00;100227.13;12202085;19;20014;-82
2023/04/29 23:43:30;;;;;;;15.45;8.18;;;;;;;11.50;100.00;100222.69;12185192;19;20000;-82
2023/04/29 23:47:32;;;;;;;12.77;6.88;;;;;;;11.49;100.00;100215.50;12201605;19;20017;-83
2023/04/29 23:51:34;;;;;;;11.15;7.05;;;;;;;11.49;100.00;100210.00;12204634;19;20027;-83
2023/04/29 23:55:36;;;;;;;11.35;7.70;;;;;;;11.48;100.00;100220.19;12195928;19;20070;-82
2023/04/29 23:59:37;;;;;;;13.88;8.35;;;;;;;11.45;100.00;100225.34;12193576;19;20044;-83
